NCAR-RAP Real-Time Weather Data

Output produced by METARs form (06 May 2021  17:07 UTC)
found at http://weather.rap.ucar.edu/surface/
 
KIRK 061555Z AUTO 34013G23KT 10SM BKN019 OVC026 11/06 A3021 RMK AO2 PK WND 31027/1503 SLP234 T01110056
KIRK 061506Z AUTO 34015G27KT 10SM BKN022 11/06 A3019 RMK AO2 PK WND 31027/1503 T01110056
KIRK 061455Z AUTO 01015G26KT 10SM SCT024 12/06 A3018 RMK AO2 PK WND 36028/1435 SLP223 T01220061 51026
KIRK 061355Z AUTO 35013G21KT 10SM CLR 12/06 A3015 RMK AO2 SLP214 T01170061
KIRK 061255Z AUTO 33013G20KT 10SM CLR 11/06 A3013 RMK AO2 SLP206 T01110056
KIRK 061155Z AUTO 31007KT 10SM CLR 10/05 A3010 RMK AO2 SLP194 60000 T01000050 10139 20078 53008
KIRK 061055Z AUTO 26005KT 10SM FEW110 08/04 A3008 RMK AO2 SLP189 T00830039
KIRK 060955Z AUTO 29006KT 10SM FEW070 10/03 A3007 RMK AO2 SLP186 T01000033
KIRK 060855Z AUTO 24003KT 10SM OVC100 12/03 A3007 RMK AO2 SLP184 60000 T01170033 56011
KIRK 060755Z AUTO 16003KT 10SM BKN110 11/05 A3008 RMK AO2 RAE05 SLP186 P0000 T01060050
KIRK 060655Z AUTO 29005KT 9SM -RA FEW060 OVC080 12/04 A3010 RMK AO2 RAB53 SLP194 P0000 T01220044
KIRK 060555Z AUTO 21004KT 10SM SCT100 BKN110 13/02 A3011 RMK AO2 SLP197 T01280022 10183 20094 402060028 58003
KIRK 060455Z AUTO 23004KT 10SM OVC085 13/03 A3013 RMK AO2 SLP204 T01330033
KIRK 060355Z AUTO 20003KT 10SM BKN120 10/06 A3012 RMK AO2 SLP204 T01000056
KIRK 060255Z AUTO 16003KT 10SM BKN100 12/04 A3012 RMK AO2 SLP202 T01170039 51002